createdAt,value
2023-02-11T00:02:18.835Z,98.56
2023-02-11T00:05:07.765Z,97.95
2023-02-11T00:07:48.742Z,98.11
2023-02-11T00:10:35.764Z,97.98
2023-02-11T00:13:15.762Z,97.98
2023-02-11T00:16:02.755Z,98.36
2023-02-11T00:18:42.762Z,97.89
2023-02-11T00:21:32.754Z,98.19
2023-02-11T00:24:06.863Z,97.28
2023-02-11T00:26:53.770Z,97.35
2023-02-11T00:29:26.873Z,97.58
2023-02-11T00:32:15.746Z,97.28
2023-02-11T00:34:55.754Z,97.45
2023-02-11T00:37:42.828Z,97.63
2023-02-11T00:40:23.773Z,97.67
2023-02-11T00:43:17.756Z,97.72
2023-02-11T00:46:04.768Z,97.85
2023-02-11T00:48:37.847Z,97.80
2023-02-11T00:51:24.759Z,97.54
2023-02-11T00:54:04.761Z,97.51
2023-02-11T00:56:58.766Z,97.56
2023-02-11T00:59:45.773Z,98.11
2023-02-11T01:02:25.752Z,97.83
2023-02-11T01:05:19.816Z,97.66
2023-02-11T01:08:06.713Z,97.50
2023-02-11T01:10:39.866Z,97.70
2023-02-11T01:13:26.778Z,97.65
2023-02-11T01:16:00.948Z,97.67
2023-02-11T01:18:49.761Z,97.92
2023-02-11T01:21:22.861Z,98.00
2023-02-11T01:24:09.788Z,97.90
2023-02-11T01:26:49.774Z,97.47
2023-02-11T01:29:36.790Z,96.91
2023-02-11T01:32:16.806Z,96.92
2023-02-11T01:35:03.776Z,97.45
2023-02-11T01:37:46.777Z,96.97
2023-02-11T01:40:40.780Z,96.84
2023-02-11T01:43:34.813Z,96.66
2023-02-11T01:46:34.834Z,96.82
2023-02-11T01:49:24.843Z,96.94
2023-02-11T01:52:06.789Z,96.71
2023-02-11T01:55:16.840Z,96.60
2023-02-11T01:58:00.792Z,96.38
2023-02-11T02:00:48.773Z,96.71
2023-02-11T02:03:28.909Z,97.07
2023-02-11T02:06:34.777Z,96.87
2023-02-11T02:09:22.936Z,97.00
2023-02-11T02:12:09.779Z,97.10
2023-02-11T02:14:54.832Z,96.82
2023-02-11T02:17:52.786Z,96.46
2023-02-11T02:21:10.789Z,96.13
2023-02-11T02:24:22.790Z,96.20
2023-02-11T02:27:43.799Z,96.88
2023-02-11T02:31:01.836Z,96.57
2023-02-11T02:34:12.829Z,96.17
2023-02-11T02:37:22.819Z,96.20
2023-02-11T02:40:15.783Z,95.74
2023-02-11T02:42:50.923Z,96.06
2023-02-11T02:45:37.796Z,95.93
2023-02-11T02:48:10.961Z,96.00
2023-02-11T02:51:04.797Z,96.16
2023-02-11T02:54:03.817Z,96.50
2023-02-11T02:57:16.798Z,96.15
2023-02-11T03:00:21.412Z,95.74
2023-02-11T03:03:10.808Z,96.44
2023-02-11T03:06:08.918Z,96.81
2023-02-11T03:09:18.796Z,96.66
2023-02-11T03:11:51.944Z,96.90
2023-02-11T03:14:39.801Z,96.82
2023-02-11T03:17:14.892Z,96.66
2023-02-11T03:20:03.866Z,96.86
2023-02-11T03:22:41.976Z,96.44
2023-02-11T03:25:35.842Z,95.92
2023-02-11T03:28:08.918Z,95.79
2023-02-11T03:31:02.962Z,96.23
2023-02-11T03:33:50.822Z,95.86
2023-02-11T03:36:53.814Z,95.83
2023-02-11T03:39:33.904Z,96.10
2023-02-11T03:42:21.802Z,96.10
2023-02-11T03:45:04.992Z,96.26
2023-02-11T03:47:59.811Z,96.16
2023-02-11T03:50:43.800Z,95.76
2023-02-11T03:53:37.814Z,96.37
2023-02-11T03:56:36.811Z,97.31
2023-02-11T03:59:23.825Z,98.06
2023-02-11T04:01:59.636Z,97.94
2023-02-11T04:04:46.787Z,97.60
2023-02-11T04:07:26.830Z,97.39
2023-02-11T04:10:21.833Z,97.31
2023-02-11T04:13:08.830Z,97.05
2023-02-11T04:15:41.928Z,96.90
2023-02-11T04:18:28.823Z,96.62
2023-02-11T04:21:01.928Z,96.75
2023-02-11T04:23:48.818Z,96.93
2023-02-11T04:26:21.930Z,96.99
2023-02-11T04:29:08.806Z,96.93
2023-02-11T04:31:42.019Z,96.78
2023-02-11T04:34:28.858Z,96.72
2023-02-11T04:37:01.920Z,97.14
2023-02-11T04:39:48.857Z,97.06
2023-02-11T04:42:21.915Z,96.75
2023-02-11T04:45:08.845Z,96.99
2023-02-11T04:47:48.825Z,96.70
2023-02-11T04:50:36.811Z,96.73
2023-02-11T04:53:16.843Z,96.98
2023-02-11T04:56:10.879Z,96.94
2023-02-11T04:58:57.862Z,96.77
2023-02-11T05:01:37.850Z,96.74
2023-02-11T05:04:31.901Z,96.76
2023-02-11T05:07:18.885Z,97.17
2023-02-11T05:09:51.940Z,97.37
2023-02-11T05:12:38.846Z,97.39
2023-02-11T05:15:19.824Z,97.13
2023-02-11T05:18:13.842Z,97.14
2023-02-11T05:21:00.828Z,97.26
2023-02-11T05:23:34.356Z,97.74
2023-02-11T05:26:21.876Z,97.62
2023-02-11T05:28:54.909Z,97.11
2023-02-11T05:31:41.864Z,97.51
2023-02-11T05:34:14.908Z,97.32
2023-02-11T05:37:02.874Z,97.17
2023-02-11T05:39:35.955Z,97.32
2023-02-11T05:42:22.836Z,97.43
2023-02-11T05:44:55.951Z,97.48
2023-02-11T05:47:42.808Z,97.19
2023-02-11T05:50:22.838Z,97.29
2023-02-11T05:53:10.822Z,97.29
2023-02-11T05:55:45.000Z,96.76
2023-02-11T05:58:31.895Z,96.96
2023-02-11T06:01:05.019Z,96.89
2023-02-11T06:03:51.901Z,97.32
2023-02-11T06:06:25.185Z,97.29
2023-02-11T06:09:11.850Z,97.03
2023-02-11T06:11:51.900Z,97.05
2023-02-11T06:14:46.871Z,97.37
2023-02-11T06:17:40.858Z,97.24
2023-02-11T06:20:34.910Z,97.08
2023-02-11T06:23:30.454Z,97.29
2023-02-11T06:26:23.866Z,97.05
2023-02-11T06:28:56.986Z,97.07
2023-02-11T06:31:46.040Z,97.09
2023-02-11T06:34:18.936Z,96.98
2023-02-11T06:37:05.869Z,96.85
2023-02-11T06:39:38.953Z,96.97
2023-02-11T06:42:25.885Z,97.13
2023-02-11T06:45:05.894Z,96.83
2023-02-11T06:47:59.862Z,96.98
2023-02-11T06:50:46.891Z,96.91
2023-02-11T06:53:26.857Z,97.36
2023-02-11T06:56:19.888Z,97.11
2023-02-11T06:58:54.849Z,97.06
2023-02-11T07:01:41.923Z,96.98
2023-02-11T07:04:15.482Z,97.09
2023-02-11T07:07:01.853Z,96.99
2023-02-11T07:09:34.974Z,96.91
2023-02-11T07:12:21.899Z,96.97
2023-02-11T07:15:01.882Z,97.14
2023-02-11T07:17:48.864Z,97.16
2023-02-11T07:20:22.004Z,96.83
2023-02-11T07:23:08.865Z,96.99
2023-02-11T07:25:42.967Z,96.68
2023-02-11T07:28:29.907Z,96.52
2023-02-11T07:31:09.951Z,96.60
2023-02-11T07:34:05.879Z,96.79
2023-02-11T07:36:52.859Z,97.08
2023-02-11T07:39:27.613Z,97.23
2023-02-11T07:42:14.886Z,96.75
2023-02-11T07:44:54.884Z,96.66
2023-02-11T07:47:41.864Z,96.65
2023-02-11T07:50:22.908Z,96.41
2023-02-11T07:53:09.949Z,96.72
2023-02-11T07:55:43.030Z,96.87
2023-02-11T07:58:29.857Z,96.56
2023-02-11T08:01:08.051Z,96.38
2023-02-11T08:03:54.870Z,96.79
2023-02-11T08:06:29.996Z,96.55
2023-02-11T08:09:12.881Z,96.91
2023-02-11T08:11:52.971Z,97.23
2023-02-11T08:14:33.879Z,97.07
2023-02-11T08:17:13.897Z,97.25
2023-02-11T08:19:46.971Z,96.78
2023-02-11T08:22:33.864Z,96.49
2023-02-11T08:25:13.857Z,95.94
2023-02-11T08:28:07.928Z,96.09
2023-02-11T08:30:54.920Z,96.11
2023-02-11T08:33:28.025Z,96.17
2023-02-11T08:36:16.889Z,95.65
2023-02-11T08:38:51.074Z,95.66
2023-02-11T08:41:41.896Z,95.88
2023-02-11T08:44:15.036Z,96.04
2023-02-11T08:47:01.869Z,96.71
2023-02-11T08:49:41.901Z,96.52
2023-02-11T08:52:28.914Z,96.37
2023-02-11T08:55:08.890Z,96.11
2023-02-11T08:58:02.918Z,95.88
2023-02-11T09:00:56.884Z,96.00
2023-02-11T09:03:43.885Z,96.23
2023-02-11T09:06:19.005Z,96.38
2023-02-11T09:09:05.935Z,96.28
2023-02-11T09:11:43.082Z,95.97
2023-02-11T09:14:30.918Z,96.00
2023-02-11T09:17:04.036Z,96.11
2023-02-11T09:19:50.902Z,95.77
2023-02-11T09:22:23.987Z,95.68
2023-02-11T09:25:10.974Z,95.37
2023-02-11T09:27:44.043Z,95.14
2023-02-11T09:30:30.997Z,95.13
2023-02-11T09:33:04.142Z,95.20
2023-02-11T09:35:50.905Z,94.68
2023-02-11T09:38:24.003Z,94.14
2023-02-11T09:41:13.892Z,93.81
2023-02-11T09:43:55.016Z,93.56
2023-02-11T09:46:46.913Z,93.47
2023-02-11T09:49:36.917Z,93.52
2023-02-11T09:52:37.928Z,93.24
2023-02-11T09:55:31.903Z,93.60
2023-02-11T09:58:05.313Z,93.34
2023-02-11T10:01:09.966Z,93.85
2023-02-11T10:03:55.957Z,93.63
2023-02-11T10:06:50.908Z,92.79
2023-02-11T10:09:27.130Z,93.75
2023-02-11T10:12:19.949Z,94.43
2023-02-11T10:15:11.911Z,94.42
2023-02-11T10:18:27.935Z,93.52
2023-02-11T10:21:32.929Z,93.94
2023-02-11T10:24:28.922Z,94.07
2023-02-11T10:27:23.924Z,93.40
2023-02-11T10:30:03.114Z,93.49
2023-02-11T10:33:23.915Z,93.27
2023-02-11T10:36:04.959Z,93.28
2023-02-11T10:38:58.927Z,92.71
2023-02-11T10:41:59.906Z,92.13
2023-02-11T10:45:02.924Z,92.92
2023-02-11T10:47:57.916Z,91.45
2023-02-11T10:50:44.937Z,91.77
2023-02-11T10:53:27.283Z,91.31
2023-02-11T10:56:06.947Z,91.21
2023-02-11T10:59:00.135Z,90.70
2023-02-11T11:02:11.002Z,91.12
2023-02-11T11:04:51.951Z,91.19
2023-02-11T11:07:38.949Z,91.71
2023-02-11T11:10:52.215Z,91.56
2023-02-11T11:13:48.917Z,91.95
2023-02-11T11:16:38.949Z,92.22
2023-02-11T11:19:21.930Z,91.09
2023-02-11T11:22:15.964Z,90.71
2023-02-11T11:25:03.936Z,90.42
2023-02-11T11:27:37.828Z,90.42
2023-02-11T11:30:26.025Z,89.44
2023-02-11T11:32:59.057Z,89.17
2023-02-11T11:35:45.964Z,88.98
2023-02-11T11:38:28.927Z,89.38
2023-02-11T11:41:36.956Z,89.28
2023-02-11T11:44:41.992Z,89.82
2023-02-11T11:47:35.989Z,89.70
2023-02-11T11:50:27.781Z,88.93
2023-02-11T11:53:52.953Z,88.79
2023-02-11T11:56:39.071Z,89.10
2023-02-11T11:59:22.955Z,89.23
2023-02-11T12:02:42.071Z,89.35
2023-02-11T12:05:54.931Z,89.35
2023-02-11T12:08:47.077Z,88.94
2023-02-11T12:11:42.951Z,88.25
2023-02-11T12:14:30.985Z,88.69
2023-02-11T12:17:42.950Z,88.54
2023-02-11T12:20:44.962Z,88.25
2023-02-11T12:24:01.953Z,88.56
2023-02-11T12:26:55.970Z,87.83
2023-02-11T12:29:44.051Z,87.51
2023-02-11T12:32:50.942Z,88.08
2023-02-11T12:36:09.054Z,88.29
2023-02-11T12:39:13.963Z,87.14
2023-02-11T12:42:29.967Z,87.40
2023-02-11T12:45:28.026Z,87.98
2023-02-11T12:48:48.961Z,88.13
2023-02-11T12:52:07.016Z,87.78
2023-02-11T12:55:07.015Z,87.96
2023-02-11T12:57:44.108Z,88.29
2023-02-11T13:00:37.992Z,88.07
2023-02-11T13:03:25.985Z,87.62
2023-02-11T13:06:27.980Z,87.35
2023-02-11T13:09:24.996Z,87.54
2023-02-11T13:12:22.034Z,87.82
2023-02-11T13:15:14.002Z,87.13
2023-02-11T13:18:12.035Z,87.74
2023-02-11T13:21:43.970Z,87.47
2023-02-11T13:24:45.981Z,87.56
2023-02-11T13:27:25.995Z,87.54
2023-02-11T13:30:40.011Z,87.16
2023-02-11T13:33:38.999Z,87.75
2023-02-11T13:36:15.112Z,87.58
2023-02-11T13:39:08.002Z,87.72
2023-02-11T13:41:51.585Z,87.30
2023-02-11T13:44:47.988Z,88.54
2023-02-11T13:47:43.997Z,88.74
2023-02-11T13:50:39.985Z,89.08
2023-02-11T13:53:26.998Z,88.92
2023-02-11T13:56:13.134Z,89.76
2023-02-11T13:59:02.032Z,89.65
2023-02-11T14:02:14.440Z,90.33
2023-02-11T14:05:43.998Z,89.73
2023-02-11T14:08:42.020Z,90.27
2023-02-11T14:11:48.022Z,90.60
2023-02-11T14:14:40.055Z,91.00
2023-02-11T14:17:13.159Z,90.95
2023-02-11T14:19:59.999Z,91.52
2023-02-11T14:22:37.085Z,91.31
2023-02-11T14:25:33.054Z,91.56
2023-02-11T14:28:41.057Z,92.25
2023-02-11T14:31:41.133Z,92.31
2023-02-11T14:34:34.010Z,92.27
2023-02-11T14:37:21.124Z,92.59
2023-02-11T14:40:14.008Z,92.79
2023-02-11T14:42:48.108Z,92.80
2023-02-11T14:45:43.014Z,93.53
2023-02-11T14:48:46.009Z,93.14
2023-02-11T14:51:40.037Z,92.93
2023-02-11T14:54:40.086Z,93.17
2023-02-11T14:57:35.017Z,93.36
2023-02-11T15:00:35.020Z,93.45
2023-02-11T15:03:33.028Z,93.99
2023-02-11T15:06:12.213Z,94.13
2023-02-11T15:09:09.000Z,94.12
2023-02-11T15:11:49.159Z,94.29
2023-02-11T15:14:47.007Z,94.87
2023-02-11T15:17:32.095Z,94.37
2023-02-11T15:20:33.014Z,94.79
2023-02-11T15:23:18.022Z,95.05
2023-02-11T15:26:12.027Z,94.94
2023-02-11T15:28:59.358Z,95.11
2023-02-11T15:31:35.286Z,95.34
2023-02-11T15:34:22.027Z,95.58
2023-02-11T15:36:55.175Z,95.62
2023-02-11T15:39:50.018Z,96.03
2023-02-11T15:42:52.578Z,95.90
2023-02-11T15:45:51.027Z,95.96
2023-02-11T15:49:06.068Z,96.32
2023-02-11T15:51:54.039Z,95.98
2023-02-11T15:54:32.602Z,96.18
2023-02-11T15:57:19.034Z,96.48
2023-02-11T16:00:02.025Z,96.48
2023-02-11T16:02:53.048Z,96.79
2023-02-11T16:05:32.230Z,96.78
2023-02-11T16:08:32.075Z,97.21
2023-02-11T16:11:09.212Z,97.35
2023-02-11T16:13:56.031Z,97.26
2023-02-11T16:16:36.297Z,97.79
2023-02-11T16:19:27.048Z,97.89
2023-02-11T16:22:10.089Z,98.15
2023-02-11T16:25:06.062Z,98.42
2023-02-11T16:27:58.096Z,99.24
2023-02-11T16:30:38.182Z,100.00
2023-02-11T16:33:25.034Z,100.00
2023-02-11T16:36:02.108Z,100.00
2023-02-11T16:38:49.051Z,100.00
2023-02-11T16:41:22.180Z,100.00
2023-02-11T16:44:09.051Z,100.00
2023-02-11T16:46:43.170Z,100.00
2023-02-11T16:49:36.097Z,100.00
2023-02-11T16:52:14.154Z,100.00
2023-02-11T16:55:01.472Z,100.00
2023-02-11T16:57:35.177Z,100.00
2023-02-11T17:00:24.064Z,100.00
2023-02-11T17:03:04.046Z,100.00
2023-02-11T17:06:00.368Z,100.00
2023-02-11T17:08:54.056Z,100.00
2023-02-11T17:11:41.041Z,100.00
2023-02-11T17:14:14.211Z,100.00
2023-02-11T17:17:01.062Z,100.00
2023-02-11T17:19:41.085Z,100.00
2023-02-11T17:22:35.054Z,100.00
2023-02-11T17:25:22.052Z,100.00
2023-02-11T17:28:02.112Z,100.00
2023-02-11T17:30:50.091Z,100.00
2023-02-11T17:33:23.183Z,100.00
2023-02-11T17:36:15.086Z,100.00
2023-02-11T17:38:55.076Z,100.00
2023-02-11T17:41:44.082Z,100.00
2023-02-11T17:44:25.065Z,100.00
2023-02-11T17:47:19.058Z,100.00
2023-02-11T17:50:13.059Z,100.00
2023-02-11T17:53:00.103Z,100.00
2023-02-11T17:55:33.193Z,100.00
2023-02-11T17:58:20.131Z,100.00
2023-02-11T18:00:53.306Z,100.00
2023-02-11T18:03:40.060Z,100.00
2023-02-11T18:06:14.218Z,100.00
2023-02-11T18:09:04.213Z,100.00
2023-02-11T18:11:47.101Z,100.00
2023-02-11T18:14:34.095Z,100.00
2023-02-11T18:17:14.063Z,100.00
2023-02-11T18:20:04.080Z,100.00
2023-02-11T18:22:40.174Z,100.00
2023-02-11T18:25:27.095Z,100.00
2023-02-11T18:28:07.132Z,100.00
2023-02-11T18:30:54.104Z,100.00
2023-02-11T18:33:28.237Z,100.00
2023-02-11T18:36:21.082Z,100.00
2023-02-11T18:39:01.080Z,100.00
2023-02-11T18:41:50.095Z,100.00
2023-02-11T18:44:24.754Z,100.00
2023-02-11T18:47:11.092Z,100.00
2023-02-11T18:49:44.192Z,100.00
2023-02-11T18:52:31.119Z,100.00
2023-02-11T18:55:04.270Z,100.00
2023-02-11T18:57:51.144Z,100.00
2023-02-11T19:00:28.266Z,100.00
2023-02-11T19:03:15.092Z,100.00
2023-02-11T19:06:01.089Z,100.00
2023-02-11T19:08:57.490Z,100.00
2023-02-11T19:11:54.155Z,100.00
2023-02-11T19:14:42.102Z,100.00
2023-02-11T19:17:15.296Z,100.00
2023-02-11T19:20:02.237Z,100.00
2023-02-11T19:22:35.184Z,100.00
2023-02-11T19:25:22.113Z,100.00
2023-02-11T19:27:55.194Z,100.00
2023-02-11T19:30:43.203Z,100.00
2023-02-11T19:33:17.271Z,100.00
2023-02-11T19:36:10.366Z,100.00
2023-02-11T19:38:45.260Z,100.00
2023-02-11T19:41:32.093Z,100.00
2023-02-11T19:44:05.220Z,100.00
2023-02-11T19:47:00.242Z,100.00
2023-02-11T19:49:47.138Z,100.00
2023-02-11T19:52:20.548Z,100.00
2023-02-11T19:55:07.202Z,100.00
2023-02-11T19:57:47.310Z,100.00
2023-02-11T20:01:01.293Z,100.00
2023-02-11T20:03:49.143Z,100.00
2023-02-11T20:06:26.283Z,100.00
2023-02-11T20:09:16.157Z,100.00
2023-02-11T20:11:57.173Z,100.00
2023-02-11T20:14:51.166Z,100.00
2023-02-11T20:17:38.122Z,100.00
2023-02-11T20:20:12.939Z,100.00
2023-02-11T20:23:00.127Z,100.00
2023-02-11T20:25:40.093Z,100.00
2023-02-11T20:28:27.129Z,100.00
2023-02-11T20:31:04.308Z,100.00
2023-02-11T20:33:53.149Z,100.00
2023-02-11T20:36:38.132Z,100.00
2023-02-11T20:39:28.137Z,100.00
2023-02-11T20:42:08.137Z,100.00
2023-02-11T20:45:02.133Z,100.00
2023-02-11T20:47:56.108Z,100.00
2023-02-11T20:50:43.174Z,100.00
2023-02-11T20:53:16.258Z,100.00
2023-02-11T20:56:03.196Z,100.00
2023-02-11T20:58:36.247Z,100.00
2023-02-11T21:01:33.202Z,100.00
2023-02-11T21:04:19.142Z,100.00
2023-02-11T21:07:08.129Z,100.00
2023-02-11T21:09:41.214Z,100.00
2023-02-11T21:12:28.109Z,100.00
2023-02-11T21:15:04.959Z,100.00
2023-02-11T21:17:52.153Z,100.00
2023-02-11T21:20:32.196Z,100.00
2023-02-11T21:23:19.138Z,100.00
2023-02-11T21:25:59.176Z,100.00
2023-02-11T21:28:46.232Z,100.00
2023-02-11T21:31:32.464Z,100.00
2023-02-11T21:34:19.143Z,100.00
2023-02-11T21:36:52.422Z,100.00
2023-02-11T21:39:39.119Z,100.00
2023-02-11T21:42:19.141Z,100.00
2023-02-11T21:45:13.199Z,100.00
2023-02-11T21:48:07.149Z,100.00
2023-02-11T21:51:01.159Z,100.00
2023-02-11T21:53:55.193Z,100.00
2023-02-11T21:56:43.184Z,100.00
2023-02-11T21:59:18.272Z,100.00
2023-02-11T22:02:05.238Z,100.00
2023-02-11T22:04:38.329Z,100.00
2023-02-11T22:07:27.157Z,100.00
2023-02-11T22:10:00.280Z,100.00
2023-02-11T22:12:47.166Z,100.00
2023-02-11T22:15:27.221Z,100.00
2023-02-11T22:18:21.125Z,100.00
2023-02-11T22:21:11.203Z,100.00
2023-02-11T22:23:45.277Z,100.00
2023-02-11T22:26:34.164Z,100.00
2023-02-11T22:29:07.244Z,100.00
2023-02-11T22:31:54.204Z,100.00
2023-02-11T22:34:27.281Z,100.00
2023-02-11T22:37:09.136Z,100.00
2023-02-11T22:39:56.151Z,100.00
2023-02-11T22:42:50.147Z,100.00
2023-02-11T22:45:44.249Z,100.00
2023-02-11T22:48:24.277Z,100.00
2023-02-11T22:51:04.135Z,100.00
2023-02-11T22:53:44.147Z,100.00
2023-02-11T22:56:39.217Z,100.00
2023-02-11T22:59:26.177Z,100.00
2023-02-11T23:01:59.407Z,100.00
2023-02-11T23:04:48.359Z,100.00
2023-02-11T23:07:30.181Z,100.00
2023-02-11T23:10:17.157Z,100.00
2023-02-11T23:12:57.169Z,100.00
2023-02-11T23:15:56.535Z,100.00
2023-02-11T23:18:51.162Z,100.00
2023-02-11T23:21:47.160Z,100.00
2023-02-11T23:24:34.180Z,100.00
2023-02-11T23:27:07.283Z,100.00
2023-02-11T23:29:54.151Z,100.00
2023-02-11T23:32:27.352Z,100.00
2023-02-11T23:35:14.158Z,100.00
2023-02-11T23:37:47.288Z,100.00
2023-02-11T23:40:34.160Z,100.00
2023-02-11T23:43:07.251Z,100.00
2023-02-11T23:46:01.230Z,100.00
2023-02-11T23:48:55.206Z,100.00
2023-02-11T23:51:42.189Z,100.00
2023-02-11T23:54:26.184Z,100.00
2023-02-11T23:57:20.191Z,100.00
